sensor_id;sensor_type;location;lat;lon;timestamp;P1;durP1;ratioP1;P2;durP2;ratioP2
71665;SDS011;59503;53.486;10.196;2023-05-27T00:00:21;17.47;;;3.90;;
71665;SDS011;59503;53.486;10.196;2023-05-27T00:02:46;20.60;;;3.20;;
71665;SDS011;59503;53.486;10.196;2023-05-27T00:05:12;24.47;;;3.87;;
71665;SDS011;59503;53.486;10.196;2023-05-27T00:07:37;12.80;;;2.97;;
71665;SDS011;59503;53.486;10.196;2023-05-27T00:10:02;15.40;;;3.43;;
71665;SDS011;59503;53.486;10.196;2023-05-27T00:12:28;22.00;;;3.40;;
71665;SDS011;59503;53.486;10.196;2023-05-27T00:14:53;22.47;;;3.20;;
71665;SDS011;59503;53.486;10.196;2023-05-27T00:17:19;12.70;;;2.87;;
71665;SDS011;59503;53.486;10.196;2023-05-27T00:19:44;16.33;;;3.13;;
71665;SDS011;59503;53.486;10.196;2023-05-27T00:22:10;15.35;;;3.67;;
71665;SDS011;59503;53.486;10.196;2023-05-27T00:24:36;22.23;;;2.80;;
71665;SDS011;59503;53.486;10.196;2023-05-27T00:27:04;17.70;;;2.97;;
71665;SDS011;59503;53.486;10.196;2023-05-27T00:29:30;19.30;;;3.53;;
71665;SDS011;59503;53.486;10.196;2023-05-27T00:31:56;21.33;;;3.87;;
71665;SDS011;59503;53.486;10.196;2023-05-27T00:34:21;19.17;;;3.28;;
71665;SDS011;59503;53.486;10.196;2023-05-27T00:36:47;21.23;;;3.30;;
71665;SDS011;59503;53.486;10.196;2023-05-27T00:39:12;14.67;;;2.53;;
71665;SDS011;59503;53.486;10.196;2023-05-27T00:41:38;12.17;;;2.57;;
71665;SDS011;59503;53.486;10.196;2023-05-27T00:44:03;19.63;;;3.10;;
71665;SDS011;59503;53.486;10.196;2023-05-27T00:46:29;21.77;;;4.20;;
71665;SDS011;59503;53.486;10.196;2023-05-27T00:48:54;18.25;;;4.25;;
71665;SDS011;59503;53.486;10.196;2023-05-27T00:51:20;13.37;;;3.23;;
71665;SDS011;59503;53.486;10.196;2023-05-27T00:53:45;15.77;;;3.33;;
71665;SDS011;59503;53.486;10.196;2023-05-27T00:56:11;17.17;;;4.13;;
71665;SDS011;59503;53.486;10.196;2023-05-27T00:58:40;11.48;;;3.05;;
71665;SDS011;59503;53.486;10.196;2023-05-27T01:01:07;16.48;;;2.90;;
71665;SDS011;59503;53.486;10.196;2023-05-27T01:03:32;16.10;;;3.40;;
71665;SDS011;59503;53.486;10.196;2023-05-27T01:06:15;20.67;;;2.97;;
71665;SDS011;59503;53.486;10.196;2023-05-27T01:11:32;21.67;;;2.97;;
71665;SDS011;59503;53.486;10.196;2023-05-27T01:14:09;18.30;;;3.60;;
71665;SDS011;59503;53.486;10.196;2023-05-27T01:16:37;15.40;;;3.03;;
71665;SDS011;59503;53.486;10.196;2023-05-27T01:19:12;19.27;;;3.40;;
71665;SDS011;59503;53.486;10.196;2023-05-27T01:21:39;12.88;;;3.33;;
71665;SDS011;59503;53.486;10.196;2023-05-27T01:24:09;21.88;;;3.40;;
71665;SDS011;59503;53.486;10.196;2023-05-27T01:26:35;12.83;;;3.00;;
71665;SDS011;59503;53.486;10.196;2023-05-27T01:29:00;10.70;;;2.80;;
71665;SDS011;59503;53.486;10.196;2023-05-27T01:31:31;15.00;;;3.67;;
71665;SDS011;59503;53.486;10.196;2023-05-27T01:34:07;18.02;;;3.63;;
71665;SDS011;59503;53.486;10.196;2023-05-27T01:36:36;18.27;;;3.40;;
71665;SDS011;59503;53.486;10.196;2023-05-27T01:39:07;18.13;;;3.60;;
71665;SDS011;59503;53.486;10.196;2023-05-27T01:41:36;20.33;;;3.45;;
71665;SDS011;59503;53.486;10.196;2023-05-27T01:44:02;16.80;;;3.30;;
71665;SDS011;59503;53.486;10.196;2023-05-27T01:46:28;18.20;;;3.92;;
71665;SDS011;59503;53.486;10.196;2023-05-27T01:48:54;21.07;;;5.03;;
71665;SDS011;59503;53.486;10.196;2023-05-27T01:51:19;15.70;;;3.15;;
71665;SDS011;59503;53.486;10.196;2023-05-27T01:53:45;24.90;;;3.60;;
71665;SDS011;59503;53.486;10.196;2023-05-27T01:56:10;18.40;;;4.17;;
71665;SDS011;59503;53.486;10.196;2023-05-27T01:58:36;17.40;;;3.27;;
71665;SDS011;59503;53.486;10.196;2023-05-27T02:01:01;15.87;;;3.40;;
71665;SDS011;59503;53.486;10.196;2023-05-27T02:03:26;14.20;;;3.53;;
71665;SDS011;59503;53.486;10.196;2023-05-27T02:05:52;20.43;;;3.60;;
71665;SDS011;59503;53.486;10.196;2023-05-27T02:08:17;15.43;;;3.80;;
71665;SDS011;59503;53.486;10.196;2023-05-27T02:10:43;18.40;;;3.17;;
71665;SDS011;59503;53.486;10.196;2023-05-27T02:13:08;11.77;;;2.90;;
71665;SDS011;59503;53.486;10.196;2023-05-27T02:15:34;17.17;;;3.70;;
71665;SDS011;59503;53.486;10.196;2023-05-27T02:17:59;14.82;;;2.90;;
71665;SDS011;59503;53.486;10.196;2023-05-27T02:20:25;16.43;;;3.43;;
71665;SDS011;59503;53.486;10.196;2023-05-27T02:22:50;14.30;;;3.42;;
71665;SDS011;59503;53.486;10.196;2023-05-27T02:25:16;19.23;;;3.10;;
71665;SDS011;59503;53.486;10.196;2023-05-27T02:27:42;15.95;;;3.17;;
71665;SDS011;59503;53.486;10.196;2023-05-27T02:30:12;16.70;;;3.93;;
71665;SDS011;59503;53.486;10.196;2023-05-27T02:32:38;13.70;;;3.33;;
71665;SDS011;59503;53.486;10.196;2023-05-27T02:35:03;21.87;;;4.77;;
71665;SDS011;59503;53.486;10.196;2023-05-27T02:37:29;16.15;;;3.55;;
71665;SDS011;59503;53.486;10.196;2023-05-27T02:39:55;17.73;;;3.73;;
71665;SDS011;59503;53.486;10.196;2023-05-27T02:42:21;13.55;;;3.17;;
71665;SDS011;59503;53.486;10.196;2023-05-27T02:44:47;13.13;;;3.00;;
71665;SDS011;59503;53.486;10.196;2023-05-27T02:47:12;15.13;;;3.33;;
71665;SDS011;59503;53.486;10.196;2023-05-27T02:49:38;15.43;;;3.27;;
71665;SDS011;59503;53.486;10.196;2023-05-27T02:52:03;18.50;;;3.55;;
71665;SDS011;59503;53.486;10.196;2023-05-27T02:54:29;20.83;;;3.70;;
71665;SDS011;59503;53.486;10.196;2023-05-27T02:56:54;13.47;;;3.30;;
71665;SDS011;59503;53.486;10.196;2023-05-27T02:59:20;11.63;;;2.90;;
71665;SDS011;59503;53.486;10.196;2023-05-27T03:01:45;13.60;;;3.17;;
71665;SDS011;59503;53.486;10.196;2023-05-27T03:04:10;15.13;;;3.23;;
71665;SDS011;59503;53.486;10.196;2023-05-27T03:06:36;17.45;;;3.15;;
71665;SDS011;59503;53.486;10.196;2023-05-27T03:09:01;10.73;;;3.00;;
71665;SDS011;59503;53.486;10.196;2023-05-27T03:11:27;17.92;;;4.90;;
71665;SDS011;59503;53.486;10.196;2023-05-27T03:13:53;13.27;;;3.17;;
71665;SDS011;59503;53.486;10.196;2023-05-27T03:16:18;17.90;;;3.43;;
71665;SDS011;59503;53.486;10.196;2023-05-27T03:18:44;16.83;;;3.95;;
71665;SDS011;59503;53.486;10.196;2023-05-27T03:21:10;18.23;;;3.17;;
71665;SDS011;59503;53.486;10.196;2023-05-27T03:23:36;16.77;;;3.70;;
71665;SDS011;59503;53.486;10.196;2023-05-27T03:26:02;17.10;;;4.23;;
71665;SDS011;59503;53.486;10.196;2023-05-27T03:28:27;18.40;;;4.20;;
71665;SDS011;59503;53.486;10.196;2023-05-27T03:30:53;16.63;;;3.80;;
71665;SDS011;59503;53.486;10.196;2023-05-27T03:33:22;18.80;;;3.87;;
71665;SDS011;59503;53.486;10.196;2023-05-27T03:35:48;17.77;;;3.92;;
71665;SDS011;59503;53.486;10.196;2023-05-27T03:38:14;12.45;;;3.22;;
71665;SDS011;59503;53.486;10.196;2023-05-27T03:40:40;18.50;;;3.80;;
71665;SDS011;59503;53.486;10.196;2023-05-27T03:43:05;17.73;;;3.22;;
71665;SDS011;59503;53.486;10.196;2023-05-27T03:45:31;23.70;;;3.97;;
71665;SDS011;59503;53.486;10.196;2023-05-27T03:47:56;11.83;;;3.50;;
71665;SDS011;59503;53.486;10.196;2023-05-27T03:50:21;16.23;;;4.10;;
71665;SDS011;59503;53.486;10.196;2023-05-27T03:52:47;9.47;;;2.80;;
71665;SDS011;59503;53.486;10.196;2023-05-27T03:55:12;15.03;;;3.00;;
71665;SDS011;59503;53.486;10.196;2023-05-27T03:57:38;17.63;;;4.03;;
71665;SDS011;59503;53.486;10.196;2023-05-27T04:00:03;17.73;;;4.40;;
71665;SDS011;59503;53.486;10.196;2023-05-27T04:02:37;18.90;;;3.57;;
71665;SDS011;59503;53.486;10.196;2023-05-27T04:05:03;17.27;;;3.95;;
71665;SDS011;59503;53.486;10.196;2023-05-27T04:07:28;18.80;;;3.87;;
71665;SDS011;59503;53.486;10.196;2023-05-27T04:09:54;18.93;;;5.37;;
71665;SDS011;59503;53.486;10.196;2023-05-27T04:12:20;17.57;;;4.03;;
71665;SDS011;59503;53.486;10.196;2023-05-27T04:14:45;22.63;;;4.67;;
71665;SDS011;59503;53.486;10.196;2023-05-27T04:17:11;25.42;;;5.03;;
71665;SDS011;59503;53.486;10.196;2023-05-27T04:19:38;26.03;;;4.67;;
71665;SDS011;59503;53.486;10.196;2023-05-27T04:22:04;13.18;;;3.53;;
71665;SDS011;59503;53.486;10.196;2023-05-27T04:24:29;14.77;;;4.03;;
71665;SDS011;59503;53.486;10.196;2023-05-27T04:26:54;23.33;;;4.10;;
71665;SDS011;59503;53.486;10.196;2023-05-27T04:29:20;15.95;;;4.47;;
71665;SDS011;59503;53.486;10.196;2023-05-27T04:31:47;15.88;;;3.97;;
71665;SDS011;59503;53.486;10.196;2023-05-27T04:34:13;16.33;;;4.20;;
71665;SDS011;59503;53.486;10.196;2023-05-27T04:36:38;20.30;;;4.10;;
71665;SDS011;59503;53.486;10.196;2023-05-27T04:39:03;18.07;;;4.00;;
71665;SDS011;59503;53.486;10.196;2023-05-27T04:41:30;19.15;;;3.85;;
71665;SDS011;59503;53.486;10.196;2023-05-27T04:43:57;25.13;;;4.43;;
71665;SDS011;59503;53.486;10.196;2023-05-27T04:46:25;18.67;;;4.10;;
71665;SDS011;59503;53.486;10.196;2023-05-27T04:48:54;13.60;;;3.45;;
71665;SDS011;59503;53.486;10.196;2023-05-27T04:51:21;18.77;;;4.05;;
71665;SDS011;59503;53.486;10.196;2023-05-27T04:53:46;16.60;;;4.40;;
71665;SDS011;59503;53.486;10.196;2023-05-27T04:56:15;24.70;;;4.22;;
71665;SDS011;59503;53.486;10.196;2023-05-27T04:58:42;15.23;;;3.83;;
71665;SDS011;59503;53.486;10.196;2023-05-27T05:01:09;16.52;;;3.95;;
71665;SDS011;59503;53.486;10.196;2023-05-27T05:03:42;10.80;;;4.07;;
71665;SDS011;59503;53.486;10.196;2023-05-27T05:06:17;18.13;;;3.22;;
71665;SDS011;59503;53.486;10.196;2023-05-27T05:08:43;16.08;;;3.60;;
71665;SDS011;59503;53.486;10.196;2023-05-27T05:11:09;12.83;;;3.80;;
71665;SDS011;59503;53.486;10.196;2023-05-27T05:13:34;13.03;;;3.33;;
71665;SDS011;59503;53.486;10.196;2023-05-27T05:16:00;16.27;;;4.60;;
71665;SDS011;59503;53.486;10.196;2023-05-27T05:18:25;16.70;;;4.97;;
71665;SDS011;59503;53.486;10.196;2023-05-27T05:20:50;21.83;;;4.40;;
71665;SDS011;59503;53.486;10.196;2023-05-27T05:23:16;14.70;;;4.07;;
71665;SDS011;59503;53.486;10.196;2023-05-27T05:25:41;20.03;;;3.80;;
71665;SDS011;59503;53.486;10.196;2023-05-27T05:28:07;17.45;;;3.40;;
71665;SDS011;59503;53.486;10.196;2023-05-27T05:30:32;11.33;;;3.90;;
71665;SDS011;59503;53.486;10.196;2023-05-27T05:32:58;17.63;;;3.73;;
71665;SDS011;59503;53.486;10.196;2023-05-27T05:35:24;16.83;;;3.85;;
71665;SDS011;59503;53.486;10.196;2023-05-27T05:37:49;10.80;;;3.47;;
71665;SDS011;59503;53.486;10.196;2023-05-27T05:40:14;11.60;;;3.23;;
71665;SDS011;59503;53.486;10.196;2023-05-27T05:42:43;15.98;;;4.07;;
71665;SDS011;59503;53.486;10.196;2023-05-27T05:45:09;11.30;;;3.07;;
71665;SDS011;59503;53.486;10.196;2023-05-27T05:47:34;13.02;;;3.55;;
71665;SDS011;59503;53.486;10.196;2023-05-27T05:50:00;13.23;;;3.30;;
71665;SDS011;59503;53.486;10.196;2023-05-27T05:52:25;15.57;;;3.20;;
71665;SDS011;59503;53.486;10.196;2023-05-27T05:54:50;12.13;;;3.00;;
71665;SDS011;59503;53.486;10.196;2023-05-27T05:57:16;10.60;;;3.43;;
71665;SDS011;59503;53.486;10.196;2023-05-27T05:59:41;15.73;;;3.78;;
71665;SDS011;59503;53.486;10.196;2023-05-27T06:02:06;11.33;;;3.10;;
71665;SDS011;59503;53.486;10.196;2023-05-27T06:04:32;13.60;;;3.47;;
71665;SDS011;59503;53.486;10.196;2023-05-27T06:06:57;11.50;;;3.60;;
71665;SDS011;59503;53.486;10.196;2023-05-27T06:09:23;11.27;;;2.83;;
71665;SDS011;59503;53.486;10.196;2023-05-27T06:11:48;15.73;;;3.20;;
71665;SDS011;59503;53.486;10.196;2023-05-27T06:14:14;12.53;;;3.50;;
71665;SDS011;59503;53.486;10.196;2023-05-27T06:16:39;17.23;;;3.33;;
71665;SDS011;59503;53.486;10.196;2023-05-27T06:19:05;13.02;;;3.83;;
71665;SDS011;59503;53.486;10.196;2023-05-27T06:21:31;13.40;;;4.00;;
71665;SDS011;59503;53.486;10.196;2023-05-27T06:23:58;10.13;;;3.13;;
71665;SDS011;59503;53.486;10.196;2023-05-27T06:26:24;15.90;;;3.55;;
71665;SDS011;59503;53.486;10.196;2023-05-27T06:28:49;13.68;;;3.28;;
71665;SDS011;59503;53.486;10.196;2023-05-27T06:31:15;9.37;;;3.40;;
71665;SDS011;59503;53.486;10.196;2023-05-27T06:33:41;12.10;;;3.20;;
71665;SDS011;59503;53.486;10.196;2023-05-27T06:36:07;10.88;;;3.45;;
71665;SDS011;59503;53.486;10.196;2023-05-27T06:38:32;12.50;;;3.73;;
71665;SDS011;59503;53.486;10.196;2023-05-27T06:40:57;15.73;;;3.90;;
71665;SDS011;59503;53.486;10.196;2023-05-27T06:43:23;16.15;;;3.60;;
71665;SDS011;59503;53.486;10.196;2023-05-27T06:45:48;11.63;;;3.40;;
71665;SDS011;59503;53.486;10.196;2023-05-27T06:48:13;12.50;;;3.17;;
71665;SDS011;59503;53.486;10.196;2023-05-27T06:50:39;10.07;;;2.60;;
71665;SDS011;59503;53.486;10.196;2023-05-27T06:53:04;12.70;;;3.23;;
71665;SDS011;59503;53.486;10.196;2023-05-27T06:55:30;12.43;;;3.33;;
71665;SDS011;59503;53.486;10.196;2023-05-27T06:57:55;14.73;;;3.23;;
71665;SDS011;59503;53.486;10.196;2023-05-27T07:00:20;9.57;;;2.67;;
71665;SDS011;59503;53.486;10.196;2023-05-27T07:02:46;9.60;;;3.00;;
71665;SDS011;59503;53.486;10.196;2023-05-27T07:05:11;10.35;;;3.17;;
71665;SDS011;59503;53.486;10.196;2023-05-27T07:07:37;11.87;;;3.17;;
71665;SDS011;59503;53.486;10.196;2023-05-27T07:10:02;8.70;;;3.30;;
71665;SDS011;59503;53.486;10.196;2023-05-27T07:12:28;9.30;;;3.03;;
71665;SDS011;59503;53.486;10.196;2023-05-27T07:14:53;13.17;;;3.27;;
71665;SDS011;59503;53.486;10.196;2023-05-27T07:17:18;13.60;;;4.03;;
71665;SDS011;59503;53.486;10.196;2023-05-27T07:19:44;14.23;;;3.43;;
71665;SDS011;59503;53.486;10.196;2023-05-27T07:22:09;14.70;;;3.33;;
71665;SDS011;59503;53.486;10.196;2023-05-27T07:24:34;15.07;;;3.40;;
71665;SDS011;59503;53.486;10.196;2023-05-27T07:27:00;17.00;;;3.37;;
71665;SDS011;59503;53.486;10.196;2023-05-27T07:29:26;11.83;;;3.00;;
71665;SDS011;59503;53.486;10.196;2023-05-27T07:31:51;11.77;;;3.10;;
71665;SDS011;59503;53.486;10.196;2023-05-27T07:34:16;12.32;;;3.25;;
71665;SDS011;59503;53.486;10.196;2023-05-27T07:36:42;13.93;;;3.30;;
71665;SDS011;59503;53.486;10.196;2023-05-27T07:39:07;14.93;;;3.37;;
71665;SDS011;59503;53.486;10.196;2023-05-27T07:41:33;14.07;;;3.30;;
71665;SDS011;59503;53.486;10.196;2023-05-27T07:43:58;12.48;;;2.55;;
71665;SDS011;59503;53.486;10.196;2023-05-27T07:46:24;13.43;;;3.33;;
71665;SDS011;59503;53.486;10.196;2023-05-27T07:48:49;13.93;;;2.93;;
71665;SDS011;59503;53.486;10.196;2023-05-27T07:51:14;13.73;;;2.80;;
71665;SDS011;59503;53.486;10.196;2023-05-27T07:53:40;14.07;;;3.67;;
71665;SDS011;59503;53.486;10.196;2023-05-27T07:56:05;16.17;;;3.30;;
71665;SDS011;59503;53.486;10.196;2023-05-27T07:58:31;12.40;;;3.67;;
71665;SDS011;59503;53.486;10.196;2023-05-27T08:00:56;15.60;;;3.30;;
71665;SDS011;59503;53.486;10.196;2023-05-27T08:03:21;10.55;;;3.33;;
71665;SDS011;59503;53.486;10.196;2023-05-27T08:05:47;15.10;;;3.17;;
71665;SDS011;59503;53.486;10.196;2023-05-27T08:08:12;11.73;;;3.17;;
71665;SDS011;59503;53.486;10.196;2023-05-27T08:10:38;12.57;;;3.50;;
71665;SDS011;59503;53.486;10.196;2023-05-27T08:13:04;11.60;;;3.70;;
71665;SDS011;59503;53.486;10.196;2023-05-27T08:15:29;12.55;;;3.90;;
71665;SDS011;59503;53.486;10.196;2023-05-27T08:17:55;13.47;;;3.53;;
71665;SDS011;59503;53.486;10.196;2023-05-27T08:20:21;15.73;;;3.40;;
71665;SDS011;59503;53.486;10.196;2023-05-27T08:22:46;16.17;;;3.53;;
71665;SDS011;59503;53.486;10.196;2023-05-27T08:25:12;12.27;;;3.42;;
71665;SDS011;59503;53.486;10.196;2023-05-27T08:27:50;14.43;;;3.50;;
71665;SDS011;59503;53.486;10.196;2023-05-27T08:30:18;15.15;;;3.80;;
71665;SDS011;59503;53.486;10.196;2023-05-27T08:32:43;13.73;;;4.40;;
71665;SDS011;59503;53.486;10.196;2023-05-27T08:35:10;16.50;;;3.85;;
71665;SDS011;59503;53.486;10.196;2023-05-27T08:37:36;12.02;;;3.97;;
71665;SDS011;59503;53.486;10.196;2023-05-27T08:40:02;14.35;;;3.85;;
71665;SDS011;59503;53.486;10.196;2023-05-27T08:42:32;10.97;;;3.43;;
71665;SDS011;59503;53.486;10.196;2023-05-27T08:44:59;14.50;;;4.05;;
71665;SDS011;59503;53.486;10.196;2023-05-27T08:47:25;14.25;;;4.00;;
71665;SDS011;59503;53.486;10.196;2023-05-27T08:49:53;12.18;;;4.05;;
71665;SDS011;59503;53.486;10.196;2023-05-27T08:52:19;8.53;;;3.33;;
71665;SDS011;59503;53.486;10.196;2023-05-27T08:54:48;12.10;;;4.03;;
71665;SDS011;59503;53.486;10.196;2023-05-27T08:57:15;13.30;;;4.32;;
71665;SDS011;59503;53.486;10.196;2023-05-27T08:59:42;13.57;;;4.35;;
71665;SDS011;59503;53.486;10.196;2023-05-27T09:02:11;15.97;;;3.60;;
71665;SDS011;59503;53.486;10.196;2023-05-27T09:04:41;10.70;;;3.47;;
71665;SDS011;59503;53.486;10.196;2023-05-27T09:07:07;10.90;;;4.30;;
71665;SDS011;59503;53.486;10.196;2023-05-27T09:09:33;13.20;;;4.40;;
71665;SDS011;59503;53.486;10.196;2023-05-27T09:11:59;15.82;;;4.60;;
71665;SDS011;59503;53.486;10.196;2023-05-27T09:14:27;16.97;;;4.33;;
71665;SDS011;59503;53.486;10.196;2023-05-27T09:16:54;15.32;;;4.57;;
71665;SDS011;59503;53.486;10.196;2023-05-27T09:19:20;15.30;;;4.05;;
71665;SDS011;59503;53.486;10.196;2023-05-27T09:21:46;11.40;;;4.25;;
71665;SDS011;59503;53.486;10.196;2023-05-27T09:24:11;12.17;;;4.10;;
71665;SDS011;59503;53.486;10.196;2023-05-27T09:26:37;13.10;;;4.78;;
71665;SDS011;59503;53.486;10.196;2023-05-27T09:29:06;12.93;;;4.60;;
71665;SDS011;59503;53.486;10.196;2023-05-27T09:31:40;13.67;;;4.43;;
71665;SDS011;59503;53.486;10.196;2023-05-27T09:34:12;15.05;;;4.68;;
71665;SDS011;59503;53.486;10.196;2023-05-27T09:36:45;10.73;;;4.50;;
71665;SDS011;59503;53.486;10.196;2023-05-27T09:39:16;18.35;;;5.50;;
71665;SDS011;59503;53.486;10.196;2023-05-27T09:41:43;14.63;;;5.65;;
71665;SDS011;59503;53.486;10.196;2023-05-27T09:44:14;14.57;;;5.53;;
71665;SDS011;59503;53.486;10.196;2023-05-27T09:46:40;13.93;;;4.85;;
71665;SDS011;59503;53.486;10.196;2023-05-27T09:49:09;12.55;;;4.35;;
71665;SDS011;59503;53.486;10.196;2023-05-27T09:51:35;13.30;;;4.50;;
71665;SDS011;59503;53.486;10.196;2023-05-27T09:54:02;12.10;;;4.32;;
71665;SDS011;59503;53.486;10.196;2023-05-27T09:56:29;23.13;;;6.22;;
71665;SDS011;59503;53.486;10.196;2023-05-27T09:58:57;17.38;;;4.80;;
71665;SDS011;59503;53.486;10.196;2023-05-27T10:01:26;14.25;;;4.50;;
71665;SDS011;59503;53.486;10.196;2023-05-27T10:03:56;12.93;;;4.63;;
71665;SDS011;59503;53.486;10.196;2023-05-27T10:06:21;13.45;;;4.65;;
71665;SDS011;59503;53.486;10.196;2023-05-27T10:08:49;14.20;;;4.60;;
71665;SDS011;59503;53.486;10.196;2023-05-27T10:11:17;18.20;;;5.28;;
71665;SDS011;59503;53.486;10.196;2023-05-27T10:13:43;13.47;;;4.70;;
71665;SDS011;59503;53.486;10.196;2023-05-27T10:16:18;16.38;;;4.57;;
71665;SDS011;59503;53.486;10.196;2023-05-27T10:18:45;8.83;;;3.93;;
71665;SDS011;59503;53.486;10.196;2023-05-27T10:21:17;12.35;;;4.13;;
71665;SDS011;59503;53.486;10.196;2023-05-27T10:24:01;14.20;;;3.75;;
71665;SDS011;59503;53.486;10.196;2023-05-27T10:26:45;12.48;;;4.00;;
71665;SDS011;59503;53.486;10.196;2023-05-27T10:29:13;13.57;;;3.78;;
71665;SDS011;59503;53.486;10.196;2023-05-27T10:31:44;10.50;;;3.47;;
71665;SDS011;59503;53.486;10.196;2023-05-27T10:34:10;13.90;;;3.97;;
71665;SDS011;59503;53.486;10.196;2023-05-27T10:36:36;14.40;;;3.97;;
71665;SDS011;59503;53.486;10.196;2023-05-27T10:44:06;12.75;;;3.95;;
71665;SDS011;59503;53.486;10.196;2023-05-27T10:46:39;13.47;;;3.90;;
71665;SDS011;59503;53.486;10.196;2023-05-27T10:49:10;11.18;;;3.58;;
71665;SDS011;59503;53.486;10.196;2023-05-27T10:51:36;13.27;;;3.47;;
71665;SDS011;59503;53.486;10.196;2023-05-27T10:54:03;12.75;;;3.67;;
71665;SDS011;59503;53.486;10.196;2023-05-27T10:56:30;10.88;;;3.80;;
71665;SDS011;59503;53.486;10.196;2023-05-27T10:58:55;11.00;;;3.60;;
71665;SDS011;59503;53.486;10.196;2023-05-27T11:01:21;12.20;;;3.53;;
71665;SDS011;59503;53.486;10.196;2023-05-27T11:03:52;9.73;;;3.83;;
71665;SDS011;59503;53.486;10.196;2023-05-27T11:06:19;13.93;;;4.07;;
71665;SDS011;59503;53.486;10.196;2023-05-27T11:08:45;9.48;;;3.38;;
71665;SDS011;59503;53.486;10.196;2023-05-27T11:11:11;13.10;;;4.07;;
71665;SDS011;59503;53.486;10.196;2023-05-27T11:13:41;12.93;;;3.97;;
71665;SDS011;59503;53.486;10.196;2023-05-27T11:16:07;14.13;;;4.13;;
71665;SDS011;59503;53.486;10.196;2023-05-27T11:21:06;14.20;;;5.15;;
71665;SDS011;59503;53.486;10.196;2023-05-27T11:23:40;9.37;;;4.23;;
71665;SDS011;59503;53.486;10.196;2023-05-27T11:28:46;10.70;;;3.92;;
71665;SDS011;59503;53.486;10.196;2023-05-27T11:31:16;11.23;;;4.53;;
71665;SDS011;59503;53.486;10.196;2023-05-27T11:33:43;9.95;;;4.05;;
71665;SDS011;59503;53.486;10.196;2023-05-27T11:36:13;13.63;;;4.50;;
71665;SDS011;59503;53.486;10.196;2023-05-27T11:41:20;14.05;;;4.50;;
71665;SDS011;59503;53.486;10.196;2023-05-27T11:43:47;13.23;;;4.30;;
71665;SDS011;59503;53.486;10.196;2023-05-27T11:46:35;11.70;;;4.70;;
71665;SDS011;59503;53.486;10.196;2023-05-27T11:49:04;13.63;;;4.43;;
71665;SDS011;59503;53.486;10.196;2023-05-27T11:51:32;11.90;;;4.30;;
71665;SDS011;59503;53.486;10.196;2023-05-27T11:53:59;12.55;;;4.63;;
71665;SDS011;59503;53.486;10.196;2023-05-27T11:56:27;13.38;;;4.80;;
71665;SDS011;59503;53.486;10.196;2023-05-27T11:58:56;12.18;;;4.72;;
71665;SDS011;59503;53.486;10.196;2023-05-27T12:01:22;13.00;;;4.27;;
71665;SDS011;59503;53.486;10.196;2023-05-27T12:03:48;21.75;;;5.15;;
71665;SDS011;59503;53.486;10.196;2023-05-27T12:06:14;16.33;;;5.07;;
71665;SDS011;59503;53.486;10.196;2023-05-27T12:08:40;11.63;;;4.93;;
71665;SDS011;59503;53.486;10.196;2023-05-27T12:11:06;11.70;;;5.10;;
71665;SDS011;59503;53.486;10.196;2023-05-27T12:13:31;10.13;;;4.50;;
71665;SDS011;59503;53.486;10.196;2023-05-27T12:15:57;13.23;;;4.43;;
71665;SDS011;59503;53.486;10.196;2023-05-27T12:18:23;13.10;;;4.95;;
71665;SDS011;59503;53.486;10.196;2023-05-27T12:20:49;13.93;;;5.50;;
71665;SDS011;59503;53.486;10.196;2023-05-27T12:23:14;13.80;;;4.82;;
71665;SDS011;59503;53.486;10.196;2023-05-27T12:25:40;11.97;;;4.87;;
71665;SDS011;59503;53.486;10.196;2023-05-27T12:28:08;11.50;;;4.87;;
71665;SDS011;59503;53.486;10.196;2023-05-27T12:30:37;12.20;;;4.82;;
71665;SDS011;59503;53.486;10.196;2023-05-27T12:33:03;12.13;;;4.50;;
71665;SDS011;59503;53.486;10.196;2023-05-27T12:35:30;11.88;;;4.70;;
71665;SDS011;59503;53.486;10.196;2023-05-27T12:37:56;11.70;;;5.13;;
71665;SDS011;59503;53.486;10.196;2023-05-27T12:40:22;11.67;;;4.47;;
71665;SDS011;59503;53.486;10.196;2023-05-27T12:42:47;14.98;;;4.55;;
71665;SDS011;59503;53.486;10.196;2023-05-27T12:45:13;12.80;;;5.03;;
71665;SDS011;59503;53.486;10.196;2023-05-27T12:47:38;13.77;;;4.57;;
71665;SDS011;59503;53.486;10.196;2023-05-27T12:50:04;11.55;;;4.85;;
71665;SDS011;59503;53.486;10.196;2023-05-27T12:52:30;12.07;;;5.72;;
71665;SDS011;59503;53.486;10.196;2023-05-27T12:54:56;14.93;;;5.50;;
71665;SDS011;59503;53.486;10.196;2023-05-27T12:57:22;12.80;;;4.72;;
71665;SDS011;59503;53.486;10.196;2023-05-27T12:59:47;9.57;;;4.00;;
71665;SDS011;59503;53.486;10.196;2023-05-27T13:02:13;12.18;;;5.60;;
71665;SDS011;59503;53.486;10.196;2023-05-27T13:04:39;10.20;;;4.10;;
71665;SDS011;59503;53.486;10.196;2023-05-27T13:07:05;11.95;;;4.60;;
71665;SDS011;59503;53.486;10.196;2023-05-27T13:09:30;11.63;;;4.53;;
71665;SDS011;59503;53.486;10.196;2023-05-27T13:11:56;9.32;;;4.20;;
71665;SDS011;59503;53.486;10.196;2023-05-27T13:14:22;11.63;;;4.40;;
71665;SDS011;59503;53.486;10.196;2023-05-27T13:16:48;8.60;;;4.60;;
71665;SDS011;59503;53.486;10.196;2023-05-27T13:19:14;7.63;;;4.47;;
71665;SDS011;59503;53.486;10.196;2023-05-27T13:21:39;10.07;;;4.20;;
71665;SDS011;59503;53.486;10.196;2023-05-27T13:24:05;14.40;;;4.50;;
71665;SDS011;59503;53.486;10.196;2023-05-27T13:26:30;12.50;;;4.57;;
71665;SDS011;59503;53.486;10.196;2023-05-27T13:28:57;10.65;;;4.18;;
71665;SDS011;59503;53.486;10.196;2023-05-27T13:31:23;9.73;;;4.47;;
71665;SDS011;59503;53.486;10.196;2023-05-27T13:33:48;11.57;;;4.40;;
71665;SDS011;59503;53.486;10.196;2023-05-27T13:36:14;10.00;;;4.10;;
71665;SDS011;59503;53.486;10.196;2023-05-27T13:38:39;9.75;;;4.10;;
71665;SDS011;59503;53.486;10.196;2023-05-27T13:41:04;10.47;;;4.40;;
71665;SDS011;59503;53.486;10.196;2023-05-27T13:43:31;12.00;;;4.72;;
71665;SDS011;59503;53.486;10.196;2023-05-27T13:45:56;18.93;;;13.80;;
71665;SDS011;59503;53.486;10.196;2023-05-27T13:48:22;17.42;;;9.90;;
71665;SDS011;59503;53.486;10.196;2023-05-27T13:50:48;10.83;;;4.90;;
71665;SDS011;59503;53.486;10.196;2023-05-27T13:53:13;19.60;;;8.25;;
71665;SDS011;59503;53.486;10.196;2023-05-27T13:55:39;14.43;;;7.33;;
71665;SDS011;59503;53.486;10.196;2023-05-27T13:58:04;10.70;;;5.13;;
71665;SDS011;59503;53.486;10.196;2023-05-27T14:00:29;8.73;;;3.90;;
71665;SDS011;59503;53.486;10.196;2023-05-27T14:02:56;9.00;;;4.10;;
71665;SDS011;59503;53.486;10.196;2023-05-27T14:05:23;12.90;;;4.27;;
71665;SDS011;59503;53.486;10.196;2023-05-27T14:07:48;13.85;;;4.60;;
71665;SDS011;59503;53.486;10.196;2023-05-27T14:10:14;13.03;;;4.73;;
71665;SDS011;59503;53.486;10.196;2023-05-27T14:12:39;12.77;;;5.30;;
71665;SDS011;59503;53.486;10.196;2023-05-27T14:15:05;11.63;;;4.57;;
71665;SDS011;59503;53.486;10.196;2023-05-27T14:17:31;12.97;;;5.10;;
71665;SDS011;59503;53.486;10.196;2023-05-27T14:19:56;9.13;;;4.40;;
71665;SDS011;59503;53.486;10.196;2023-05-27T14:22:22;9.52;;;4.25;;
71665;SDS011;59503;53.486;10.196;2023-05-27T14:24:48;10.63;;;3.80;;
71665;SDS011;59503;53.486;10.196;2023-05-27T14:27:14;11.37;;;4.37;;
71665;SDS011;59503;53.486;10.196;2023-05-27T14:29:39;9.40;;;4.17;;
71665;SDS011;59503;53.486;10.196;2023-05-27T14:32:05;12.47;;;4.43;;
71665;SDS011;59503;53.486;10.196;2023-05-27T14:34:31;13.33;;;3.97;;